Portland, Oregon
Traffic Map
Current Weather Conditions
Portland, Oregon
Overcast
Overcast
58°
Feels Like: 58°
Wind Chill: 58° Ceiling: 4300
Heat Index: 58° Visibility: 10mi
Dew Point: 50° Wind: 3mph
Humidity: 75% Direction: 320° (NW)
Pressure: 30.07in Gusts: 0mph
Raw Report DataKPDX 291053Z 32003KT 10SM OVC043 14/10 A3007 RMK AO2 SLP183 T01440100
Traffic Incident Summary
Active as of:
Severity:
Category:
InformationThere was an issue retrieving the traffic information for this location. Please try a different location or try again shortly.
Advertisements
Track Severe Weather on mobile